sensor_id;sensor_type;location;lat;lon;timestamp;P1;durP1;ratioP1;P2;durP2;ratioP2
20531;SDS011;10424;52.102;8.084;2023-04-03T00:00:10;4.47;;;1.67;;
20531;SDS011;10424;52.102;8.084;2023-04-03T00:02:38;4.67;;;1.50;;
20531;SDS011;10424;52.102;8.084;2023-04-03T00:05:06;5.53;;;1.63;;
20531;SDS011;10424;52.102;8.084;2023-04-03T00:07:34;6.70;;;2.03;;
20531;SDS011;10424;52.102;8.084;2023-04-03T00:10:01;5.13;;;1.70;;
20531;SDS011;10424;52.102;8.084;2023-04-03T00:12:29;4.57;;;1.70;;
20531;SDS011;10424;52.102;8.084;2023-04-03T00:14:56;3.97;;;2.17;;
20531;SDS011;10424;52.102;8.084;2023-04-03T00:17:23;4.43;;;1.50;;
20531;SDS011;10424;52.102;8.084;2023-04-03T00:19:52;2.77;;;1.57;;
20531;SDS011;10424;52.102;8.084;2023-04-03T00:22:19;3.80;;;1.63;;
20531;SDS011;10424;52.102;8.084;2023-04-03T00:24:47;2.87;;;1.60;;
20531;SDS011;10424;52.102;8.084;2023-04-03T00:27:14;5.43;;;1.90;;
20531;SDS011;10424;52.102;8.084;2023-04-03T00:29:41;4.00;;;1.80;;
20531;SDS011;10424;52.102;8.084;2023-04-03T00:32:09;5.00;;;2.03;;
20531;SDS011;10424;52.102;8.084;2023-04-03T00:34:36;4.13;;;1.67;;
20531;SDS011;10424;52.102;8.084;2023-04-03T00:37:05;3.10;;;1.50;;
20531;SDS011;10424;52.102;8.084;2023-04-03T00:39:32;4.37;;;1.70;;
20531;SDS011;10424;52.102;8.084;2023-04-03T00:41:59;5.17;;;1.67;;
20531;SDS011;10424;52.102;8.084;2023-04-03T00:47:10;2.67;;;1.73;;
20531;SDS011;10424;52.102;8.084;2023-04-03T00:49:37;3.40;;;1.80;;
20531;SDS011;10424;52.102;8.084;2023-04-03T00:52:07;4.57;;;1.70;;
20531;SDS011;10424;52.102;8.084;2023-04-03T00:54:37;4.73;;;1.73;;
20531;SDS011;10424;52.102;8.084;2023-04-03T00:57:05;4.37;;;1.70;;
20531;SDS011;10424;52.102;8.084;2023-04-03T00:59:33;4.07;;;1.70;;
20531;SDS011;10424;52.102;8.084;2023-04-03T01:02:01;2.53;;;1.47;;
20531;SDS011;10424;52.102;8.084;2023-04-03T01:04:30;5.33;;;1.63;;
20531;SDS011;10424;52.102;8.084;2023-04-03T01:06:59;4.83;;;1.67;;
20531;SDS011;10424;52.102;8.084;2023-04-03T01:09:29;5.57;;;1.70;;
20531;SDS011;10424;52.102;8.084;2023-04-03T01:12:12;4.57;;;2.23;;
20531;SDS011;10424;52.102;8.084;2023-04-03T01:14:41;3.10;;;1.73;;
20531;SDS011;10424;52.102;8.084;2023-04-03T01:19:51;3.87;;;1.80;;
20531;SDS011;10424;52.102;8.084;2023-04-03T01:22:24;4.53;;;1.67;;
20531;SDS011;10424;52.102;8.084;2023-04-03T01:24:55;7.07;;;2.03;;
20531;SDS011;10424;52.102;8.084;2023-04-03T01:27:22;4.30;;;1.90;;
20531;SDS011;10424;52.102;8.084;2023-04-03T01:29:49;4.83;;;1.90;;
20531;SDS011;10424;52.102;8.084;2023-04-03T01:32:18;3.90;;;1.80;;
20531;SDS011;10424;52.102;8.084;2023-04-03T01:34:45;5.87;;;2.10;;
20531;SDS011;10424;52.102;8.084;2023-04-03T01:37:13;2.60;;;1.53;;
20531;SDS011;10424;52.102;8.084;2023-04-03T01:39:40;4.73;;;1.93;;
20531;SDS011;10424;52.102;8.084;2023-04-03T01:42:07;4.30;;;2.00;;
20531;SDS011;10424;52.102;8.084;2023-04-03T01:44:35;7.30;;;2.20;;
20531;SDS011;10424;52.102;8.084;2023-04-03T01:47:04;5.13;;;2.10;;
20531;SDS011;10424;52.102;8.084;2023-04-03T01:49:33;3.27;;;1.90;;
20531;SDS011;10424;52.102;8.084;2023-04-03T01:52:00;6.20;;;1.90;;
20531;SDS011;10424;52.102;8.084;2023-04-03T01:54:28;7.17;;;2.00;;
20531;SDS011;10424;52.102;8.084;2023-04-03T01:56:55;5.57;;;1.97;;
20531;SDS011;10424;52.102;8.084;2023-04-03T01:59:22;4.30;;;1.87;;
20531;SDS011;10424;52.102;8.084;2023-04-03T02:01:50;6.83;;;2.00;;
20531;SDS011;10424;52.102;8.084;2023-04-03T02:04:17;6.60;;;1.97;;
20531;SDS011;10424;52.102;8.084;2023-04-03T02:06:46;4.30;;;1.80;;
20531;SDS011;10424;52.102;8.084;2023-04-03T02:09:13;4.13;;;1.90;;
20531;SDS011;10424;52.102;8.084;2023-04-03T02:11:40;5.53;;;2.10;;
20531;SDS011;10424;52.102;8.084;2023-04-03T02:14:07;4.97;;;2.20;;
20531;SDS011;10424;52.102;8.084;2023-04-03T02:16:35;4.17;;;1.90;;
20531;SDS011;10424;52.102;8.084;2023-04-03T02:19:03;4.73;;;1.80;;
20531;SDS011;10424;52.102;8.084;2023-04-03T02:21:30;5.53;;;1.93;;
20531;SDS011;10424;52.102;8.084;2023-04-03T02:23:59;5.73;;;1.97;;
20531;SDS011;10424;52.102;8.084;2023-04-03T02:26:26;5.20;;;2.10;;
20531;SDS011;10424;52.102;8.084;2023-04-03T02:28:53;4.90;;;2.00;;
20531;SDS011;10424;52.102;8.084;2023-04-03T02:31:20;4.50;;;1.70;;
20531;SDS011;10424;52.102;8.084;2023-04-03T02:33:49;6.20;;;2.00;;
20531;SDS011;10424;52.102;8.084;2023-04-03T02:36:16;7.60;;;1.90;;
20531;SDS011;10424;52.102;8.084;2023-04-03T02:38:43;3.27;;;1.70;;
20531;SDS011;10424;52.102;8.084;2023-04-03T02:41:12;5.93;;;1.87;;
20531;SDS011;10424;52.102;8.084;2023-04-03T02:43:40;5.17;;;2.00;;
20531;SDS011;10424;52.102;8.084;2023-04-03T02:46:07;6.50;;;2.03;;
20531;SDS011;10424;52.102;8.084;2023-04-03T02:48:36;4.33;;;1.67;;
20531;SDS011;10424;52.102;8.084;2023-04-03T02:51:03;4.37;;;1.90;;
20531;SDS011;10424;52.102;8.084;2023-04-03T02:53:31;3.77;;;1.90;;
20531;SDS011;10424;52.102;8.084;2023-04-03T02:55:58;7.10;;;2.10;;
20531;SDS011;10424;52.102;8.084;2023-04-03T02:58:27;5.17;;;1.93;;
20531;SDS011;10424;52.102;8.084;2023-04-03T03:00:54;8.77;;;2.20;;
20531;SDS011;10424;52.102;8.084;2023-04-03T03:03:21;8.10;;;1.90;;
20531;SDS011;10424;52.102;8.084;2023-04-03T03:05:48;5.30;;;2.20;;
20531;SDS011;10424;52.102;8.084;2023-04-03T03:08:16;6.20;;;1.90;;
20531;SDS011;10424;52.102;8.084;2023-04-03T03:10:45;5.07;;;1.80;;
20531;SDS011;10424;52.102;8.084;2023-04-03T03:13:12;5.77;;;2.40;;
20531;SDS011;10424;52.102;8.084;2023-04-03T03:15:41;5.87;;;2.20;;
20531;SDS011;10424;52.102;8.084;2023-04-03T03:18:08;5.43;;;1.80;;
20531;SDS011;10424;52.102;8.084;2023-04-03T03:20:35;6.33;;;2.10;;
20531;SDS011;10424;52.102;8.084;2023-04-03T03:23:02;4.47;;;1.90;;
20531;SDS011;10424;52.102;8.084;2023-04-03T03:25:30;4.43;;;1.60;;
20531;SDS011;10424;52.102;8.084;2023-04-03T03:27:57;5.97;;;1.87;;
20531;SDS011;10424;52.102;8.084;2023-04-03T03:30:24;3.23;;;1.77;;
20531;SDS011;10424;52.102;8.084;2023-04-03T03:32:53;4.80;;;2.00;;
20531;SDS011;10424;52.102;8.084;2023-04-03T03:35:20;5.80;;;1.90;;
20531;SDS011;10424;52.102;8.084;2023-04-03T03:37:47;5.07;;;2.03;;
20531;SDS011;10424;52.102;8.084;2023-04-03T03:40:15;4.23;;;2.00;;
20531;SDS011;10424;52.102;8.084;2023-04-03T03:42:42;3.87;;;1.80;;
20531;SDS011;10424;52.102;8.084;2023-04-03T03:45:10;4.53;;;1.90;;
20531;SDS011;10424;52.102;8.084;2023-04-03T03:47:37;5.80;;;1.77;;
20531;SDS011;10424;52.102;8.084;2023-04-03T03:50:07;5.67;;;1.53;;
20531;SDS011;10424;52.102;8.084;2023-04-03T03:52:34;4.97;;;2.00;;
20531;SDS011;10424;52.102;8.084;2023-04-03T03:55:01;2.97;;;1.77;;
20531;SDS011;10424;52.102;8.084;2023-04-03T03:57:29;7.13;;;2.30;;
20531;SDS011;10424;52.102;8.084;2023-04-03T03:59:56;3.87;;;1.80;;
20531;SDS011;10424;52.102;8.084;2023-04-03T04:02:23;5.13;;;1.80;;
20531;SDS011;10424;52.102;8.084;2023-04-03T04:04:50;5.10;;;1.83;;
20531;SDS011;10424;52.102;8.084;2023-04-03T04:07:19;4.73;;;1.70;;
20531;SDS011;10424;52.102;8.084;2023-04-03T04:09:46;7.30;;;2.23;;
20531;SDS011;10424;52.102;8.084;2023-04-03T04:12:14;8.47;;;2.10;;
20531;SDS011;10424;52.102;8.084;2023-04-03T04:14:41;4.03;;;1.70;;
20531;SDS011;10424;52.102;8.084;2023-04-03T04:17:11;5.80;;;1.70;;
20531;SDS011;10424;52.102;8.084;2023-04-03T04:19:38;3.13;;;1.83;;
20531;SDS011;10424;52.102;8.084;2023-04-03T04:22:06;3.57;;;1.83;;
20531;SDS011;10424;52.102;8.084;2023-04-03T04:24:34;7.77;;;2.00;;
20531;SDS011;10424;52.102;8.084;2023-04-03T04:27:02;5.57;;;1.80;;
20531;SDS011;10424;52.102;8.084;2023-04-03T04:29:29;6.40;;;2.00;;
20531;SDS011;10424;52.102;8.084;2023-04-03T04:32:00;6.80;;;2.23;;
20531;SDS011;10424;52.102;8.084;2023-04-03T04:34:27;5.30;;;2.10;;
20531;SDS011;10424;52.102;8.084;2023-04-03T04:36:55;4.00;;;1.97;;
20531;SDS011;10424;52.102;8.084;2023-04-03T04:39:22;4.73;;;1.87;;
20531;SDS011;10424;52.102;8.084;2023-04-03T04:41:51;7.17;;;2.10;;
20531;SDS011;10424;52.102;8.084;2023-04-03T04:44:18;5.63;;;1.80;;
20531;SDS011;10424;52.102;8.084;2023-04-03T04:46:46;5.47;;;1.80;;
20531;SDS011;10424;52.102;8.084;2023-04-03T04:49:13;7.07;;;2.40;;
20531;SDS011;10424;52.102;8.084;2023-04-03T04:51:40;6.33;;;2.10;;
20531;SDS011;10424;52.102;8.084;2023-04-03T04:54:08;6.93;;;2.00;;
20531;SDS011;10424;52.102;8.084;2023-04-03T04:56:35;4.47;;;2.00;;
20531;SDS011;10424;52.102;8.084;2023-04-03T04:59:03;4.93;;;1.73;;
20531;SDS011;10424;52.102;8.084;2023-04-03T05:01:31;7.70;;;1.90;;
20531;SDS011;10424;52.102;8.084;2023-04-03T05:03:58;4.53;;;1.70;;
20531;SDS011;10424;52.102;8.084;2023-04-03T05:06:25;5.53;;;1.77;;
20531;SDS011;10424;52.102;8.084;2023-04-03T05:08:55;5.73;;;1.77;;
20531;SDS011;10424;52.102;8.084;2023-04-03T05:11:22;4.93;;;2.03;;
20531;SDS011;10424;52.102;8.084;2023-04-03T05:13:50;6.93;;;2.00;;
20531;SDS011;10424;52.102;8.084;2023-04-03T05:16:19;5.77;;;2.10;;
20531;SDS011;10424;52.102;8.084;2023-04-03T05:18:46;6.87;;;1.70;;
20531;SDS011;10424;52.102;8.084;2023-04-03T05:21:14;6.20;;;2.00;;
20531;SDS011;10424;52.102;8.084;2023-04-03T05:23:43;4.60;;;1.90;;
20531;SDS011;10424;52.102;8.084;2023-04-03T05:26:10;7.47;;;2.00;;
20531;SDS011;10424;52.102;8.084;2023-04-03T05:28:37;5.27;;;1.87;;
20531;SDS011;10424;52.102;8.084;2023-04-03T05:31:05;7.93;;;1.80;;
20531;SDS011;10424;52.102;8.084;2023-04-03T05:33:34;3.77;;;1.70;;
20531;SDS011;10424;52.102;8.084;2023-04-03T05:36:02;5.23;;;1.83;;
20531;SDS011;10424;52.102;8.084;2023-04-03T05:38:29;7.60;;;2.00;;
20531;SDS011;10424;52.102;8.084;2023-04-03T05:40:57;4.57;;;2.00;;
20531;SDS011;10424;52.102;8.084;2023-04-03T05:43:24;5.87;;;2.00;;
20531;SDS011;10424;52.102;8.084;2023-04-03T05:45:51;5.77;;;1.70;;
20531;SDS011;10424;52.102;8.084;2023-04-03T05:48:18;5.87;;;2.00;;
20531;SDS011;10424;52.102;8.084;2023-04-03T05:50:47;5.20;;;1.97;;
20531;SDS011;10424;52.102;8.084;2023-04-03T05:53:15;5.57;;;1.67;;
20531;SDS011;10424;52.102;8.084;2023-04-03T05:55:44;10.30;;;2.27;;
20531;SDS011;10424;52.102;8.084;2023-04-03T05:58:12;4.97;;;2.00;;
20531;SDS011;10424;52.102;8.084;2023-04-03T06:00:39;5.80;;;1.83;;
20531;SDS011;10424;52.102;8.084;2023-04-03T06:03:06;8.67;;;1.87;;
20531;SDS011;10424;52.102;8.084;2023-04-03T06:05:34;7.07;;;2.20;;
20531;SDS011;10424;52.102;8.084;2023-04-03T06:08:02;6.60;;;2.37;;
20531;SDS011;10424;52.102;8.084;2023-04-03T06:10:30;5.03;;;1.90;;
20531;SDS011;10424;52.102;8.084;2023-04-03T06:12:58;8.73;;;1.97;;
20531;SDS011;10424;52.102;8.084;2023-04-03T06:15:25;3.83;;;1.70;;
20531;SDS011;10424;52.102;8.084;2023-04-03T06:17:52;5.77;;;1.80;;
20531;SDS011;10424;52.102;8.084;2023-04-03T06:20:20;5.03;;;1.87;;
20531;SDS011;10424;52.102;8.084;2023-04-03T06:22:47;5.27;;;1.87;;
20531;SDS011;10424;52.102;8.084;2023-04-03T06:25:17;2.97;;;1.60;;
20531;SDS011;10424;52.102;8.084;2023-04-03T06:27:44;4.73;;;1.80;;
20531;SDS011;10424;52.102;8.084;2023-04-03T06:30:12;3.67;;;1.70;;
20531;SDS011;10424;52.102;8.084;2023-04-03T06:32:39;3.70;;;1.67;;
20531;SDS011;10424;52.102;8.084;2023-04-03T06:35:08;5.23;;;2.00;;
20531;SDS011;10424;52.102;8.084;2023-04-03T06:37:35;3.57;;;1.30;;
20531;SDS011;10424;52.102;8.084;2023-04-03T06:40:03;6.18;;;1.70;;
20531;SDS011;10424;52.102;8.084;2023-04-03T06:42:32;5.78;;;1.77;;
20531;SDS011;10424;52.102;8.084;2023-04-03T06:45:00;3.83;;;1.80;;
20531;SDS011;10424;52.102;8.084;2023-04-03T06:47:28;4.18;;;2.00;;
20531;SDS011;10424;52.102;8.084;2023-04-03T06:49:55;7.22;;;2.10;;
20531;SDS011;10424;52.102;8.084;2023-04-03T06:52:22;3.33;;;1.60;;
20531;SDS011;10424;52.102;8.084;2023-04-03T06:54:50;5.60;;;1.90;;
20531;SDS011;10424;52.102;8.084;2023-04-03T06:57:22;4.40;;;1.60;;
20531;SDS011;10424;52.102;8.084;2023-04-03T06:59:50;3.63;;;1.70;;
20531;SDS011;10424;52.102;8.084;2023-04-03T07:02:18;3.25;;;1.40;;
20531;SDS011;10424;52.102;8.084;2023-04-03T07:04:45;3.55;;;1.60;;
20531;SDS011;10424;52.102;8.084;2023-04-03T07:07:13;3.67;;;1.52;;
20531;SDS011;10424;52.102;8.084;2023-04-03T07:09:40;3.15;;;1.40;;
20531;SDS011;10424;52.102;8.084;2023-04-03T07:12:08;2.25;;;1.50;;
20531;SDS011;10424;52.102;8.084;2023-04-03T07:14:36;5.32;;;1.45;;
20531;SDS011;10424;52.102;8.084;2023-04-03T07:17:04;4.25;;;1.60;;
20531;SDS011;10424;52.102;8.084;2023-04-03T07:19:32;5.93;;;1.60;;
20531;SDS011;10424;52.102;8.084;2023-04-03T07:21:59;2.60;;;1.30;;
20531;SDS011;10424;52.102;8.084;2023-04-03T07:24:27;4.47;;;1.70;;
20531;SDS011;10424;52.102;8.084;2023-04-03T07:26:54;5.43;;;2.00;;
20531;SDS011;10424;52.102;8.084;2023-04-03T07:29:22;2.85;;;1.52;;
20531;SDS011;10424;52.102;8.084;2023-04-03T07:31:49;2.05;;;1.45;;
20531;SDS011;10424;52.102;8.084;2023-04-03T07:34:19;4.20;;;1.60;;
20531;SDS011;10424;52.102;8.084;2023-04-03T07:36:46;4.72;;;2.20;;
20531;SDS011;10424;52.102;8.084;2023-04-03T07:39:13;5.15;;;1.70;;
20531;SDS011;10424;52.102;8.084;2023-04-03T07:41:40;3.80;;;1.17;;
20531;SDS011;10424;52.102;8.084;2023-04-03T07:44:08;3.65;;;1.40;;
20531;SDS011;10424;52.102;8.084;2023-04-03T07:46:36;4.35;;;1.40;;
20531;SDS011;10424;52.102;8.084;2023-04-03T07:49:03;4.13;;;1.60;;
20531;SDS011;10424;52.102;8.084;2023-04-03T07:51:32;3.92;;;1.38;;
20531;SDS011;10424;52.102;8.084;2023-04-03T07:53:59;3.80;;;1.40;;
20531;SDS011;10424;52.102;8.084;2023-04-03T07:56:27;4.25;;;1.45;;
20531;SDS011;10424;52.102;8.084;2023-04-03T07:58:54;3.70;;;1.50;;
20531;SDS011;10424;52.102;8.084;2023-04-03T08:01:21;3.17;;;1.27;;
20531;SDS011;10424;52.102;8.084;2023-04-03T08:03:49;5.25;;;1.40;;
20531;SDS011;10424;52.102;8.084;2023-04-03T08:06:16;3.75;;;1.20;;
20531;SDS011;10424;52.102;8.084;2023-04-03T08:08:45;3.40;;;1.10;;
20531;SDS011;10424;52.102;8.084;2023-04-03T08:11:12;3.22;;;1.30;;
20531;SDS011;10424;52.102;8.084;2023-04-03T08:13:39;1.95;;;1.00;;
20531;SDS011;10424;52.102;8.084;2023-04-03T08:16:09;3.80;;;1.75;;
20531;SDS011;10424;52.102;8.084;2023-04-03T08:18:36;3.90;;;1.88;;
20531;SDS011;10424;52.102;8.084;2023-04-03T08:21:07;2.22;;;1.10;;
20531;SDS011;10424;52.102;8.084;2023-04-03T08:23:35;2.60;;;1.35;;
20531;SDS011;10424;52.102;8.084;2023-04-03T08:26:07;2.33;;;1.00;;
20531;SDS011;10424;52.102;8.084;2023-04-03T08:28:35;2.40;;;1.20;;
20531;SDS011;10424;52.102;8.084;2023-04-03T08:31:03;3.55;;;1.13;;
20531;SDS011;10424;52.102;8.084;2023-04-03T08:33:32;4.53;;;1.30;;
20531;SDS011;10424;52.102;8.084;2023-04-03T08:36:01;2.75;;;1.40;;
20531;SDS011;10424;52.102;8.084;2023-04-03T08:38:28;4.32;;;1.30;;
20531;SDS011;10424;52.102;8.084;2023-04-03T08:41:02;3.53;;;1.40;;
20531;SDS011;10424;52.102;8.084;2023-04-03T08:43:35;6.18;;;1.90;;
20531;SDS011;10424;52.102;8.084;2023-04-03T08:46:05;3.50;;;1.30;;
20531;SDS011;10424;52.102;8.084;2023-04-03T08:48:33;3.42;;;1.40;;
20531;SDS011;10424;52.102;8.084;2023-04-03T08:51:02;4.15;;;1.50;;
20531;SDS011;10424;52.102;8.084;2023-04-03T08:53:32;2.65;;;1.20;;
20531;SDS011;10424;52.102;8.084;2023-04-03T08:56:02;3.28;;;1.13;;
20531;SDS011;10424;52.102;8.084;2023-04-03T08:58:30;2.70;;;1.20;;
20531;SDS011;10424;52.102;8.084;2023-04-03T09:01:02;4.65;;;1.55;;
20531;SDS011;10424;52.102;8.084;2023-04-03T09:03:30;2.92;;;1.15;;
20531;SDS011;10424;52.102;8.084;2023-04-03T09:05:59;2.42;;;1.00;;
20531;SDS011;10424;52.102;8.084;2023-04-03T09:08:30;3.38;;;1.30;;
20531;SDS011;10424;52.102;8.084;2023-04-03T09:10:59;5.22;;;1.40;;
20531;SDS011;10424;52.102;8.084;2023-04-03T09:13:31;4.57;;;1.40;;
20531;SDS011;10424;52.102;8.084;2023-04-03T09:16:03;4.30;;;1.40;;
20531;SDS011;10424;52.102;8.084;2023-04-03T09:18:38;3.20;;;1.40;;
20531;SDS011;10424;52.102;8.084;2023-04-03T09:21:12;2.47;;;1.17;;
20531;SDS011;10424;52.102;8.084;2023-04-03T09:23:41;2.08;;;1.10;;
20531;SDS011;10424;52.102;8.084;2023-04-03T09:26:11;4.10;;;1.10;;
20531;SDS011;10424;52.102;8.084;2023-04-03T09:28:40;2.90;;;1.05;;
20531;SDS011;10424;52.102;8.084;2023-04-03T09:31:13;2.95;;;1.13;;
20531;SDS011;10424;52.102;8.084;2023-04-03T09:33:43;3.40;;;1.02;;
20531;SDS011;10424;52.102;8.084;2023-04-03T09:36:11;2.75;;;1.10;;
20531;SDS011;10424;52.102;8.084;2023-04-03T09:38:38;3.38;;;1.20;;
20531;SDS011;10424;52.102;8.084;2023-04-03T09:41:07;4.05;;;1.05;;
20531;SDS011;10424;52.102;8.084;2023-04-03T09:43:41;2.42;;;1.00;;
20531;SDS011;10424;52.102;8.084;2023-04-03T09:46:24;3.70;;;1.38;;
20531;SDS011;10424;52.102;8.084;2023-04-03T09:48:52;4.18;;;1.20;;
20531;SDS011;10424;52.102;8.084;2023-04-03T09:51:24;3.25;;;1.38;;
20531;SDS011;10424;52.102;8.084;2023-04-03T09:53:53;3.10;;;1.27;;
20531;SDS011;10424;52.102;8.084;2023-04-03T09:56:22;4.82;;;1.20;;
20531;SDS011;10424;52.102;8.084;2023-04-03T09:58:52;3.88;;;1.40;;
20531;SDS011;10424;52.102;8.084;2023-04-03T10:01:25;4.07;;;1.20;;
20531;SDS011;10424;52.102;8.084;2023-04-03T10:04:04;4.72;;;1.30;;
20531;SDS011;10424;52.102;8.084;2023-04-03T10:06:32;3.25;;;1.20;;
20531;SDS011;10424;52.102;8.084;2023-04-03T10:09:01;2.67;;;0.98;;
20531;SDS011;10424;52.102;8.084;2023-04-03T10:11:29;2.35;;;1.00;;
20531;SDS011;10424;52.102;8.084;2023-04-03T10:13:57;2.88;;;1.20;;
20531;SDS011;10424;52.102;8.084;2023-04-03T10:16:28;3.13;;;1.10;;
20531;SDS011;10424;52.102;8.084;2023-04-03T10:19:11;6.85;;;1.02;;
20531;SDS011;10424;52.102;8.084;2023-04-03T10:21:43;2.28;;;1.00;;
20531;SDS011;10424;52.102;8.084;2023-04-03T10:24:13;2.50;;;1.02;;
20531;SDS011;10424;52.102;8.084;2023-04-03T10:26:44;4.18;;;1.20;;
20531;SDS011;10424;52.102;8.084;2023-04-03T10:29:16;5.85;;;1.30;;
20531;SDS011;10424;52.102;8.084;2023-04-03T10:31:50;3.17;;;1.10;;
20531;SDS011;10424;52.102;8.084;2023-04-03T10:34:23;4.07;;;1.48;;
20531;SDS011;10424;52.102;8.084;2023-04-03T10:36:53;4.20;;;1.20;;
20531;SDS011;10424;52.102;8.084;2023-04-03T10:39:23;4.00;;;1.10;;
20531;SDS011;10424;52.102;8.084;2023-04-03T10:41:58;4.20;;;1.00;;
20531;SDS011;10424;52.102;8.084;2023-04-03T10:44:29;5.32;;;1.13;;
20531;SDS011;10424;52.102;8.084;2023-04-03T10:47:12;2.72;;;1.15;;
20531;SDS011;10424;52.102;8.084;2023-04-03T10:49:44;2.33;;;1.00;;
20531;SDS011;10424;52.102;8.084;2023-04-03T10:52:15;3.13;;;0.90;;
20531;SDS011;10424;52.102;8.084;2023-04-03T10:54:45;3.53;;;1.20;;
20531;SDS011;10424;52.102;8.084;2023-04-03T10:57:14;2.50;;;1.10;;
20531;SDS011;10424;52.102;8.084;2023-04-03T10:59:41;3.75;;;1.23;;
20531;SDS011;10424;52.102;8.084;2023-04-03T11:02:14;2.78;;;1.00;;
20531;SDS011;10424;52.102;8.084;2023-04-03T11:04:44;3.95;;;1.02;;
20531;SDS011;10424;52.102;8.084;2023-04-03T11:07:15;3.60;;;1.08;;
20531;SDS011;10424;52.102;8.084;2023-04-03T11:09:44;4.47;;;1.00;;
20531;SDS011;10424;52.102;8.084;2023-04-03T11:12:12;3.65;;;1.23;;
20531;SDS011;10424;52.102;8.084;2023-04-03T11:14:41;3.05;;;1.08;;
20531;SDS011;10424;52.102;8.084;2023-04-03T11:17:11;4.32;;;1.20;;
20531;SDS011;10424;52.102;8.084;2023-04-03T11:19:44;1.98;;;1.10;;
20531;SDS011;10424;52.102;8.084;2023-04-03T11:22:15;2.10;;;1.10;;
20531;SDS011;10424;52.102;8.084;2023-04-03T11:24:46;2.60;;;1.10;;
20531;SDS011;10424;52.102;8.084;2023-04-03T11:27:19;2.53;;;1.15;;
20531;SDS011;10424;52.102;8.084;2023-04-03T11:29:48;3.88;;;1.20;;
20531;SDS011;10424;52.102;8.084;2023-04-03T11:32:25;3.75;;;1.20;;
20531;SDS011;10424;52.102;8.084;2023-04-03T11:34:56;6.55;;;1.63;;
20531;SDS011;10424;52.102;8.084;2023-04-03T11:37:26;3.50;;;1.30;;
20531;SDS011;10424;52.102;8.084;2023-04-03T11:39:56;4.47;;;1.10;;
20531;SDS011;10424;52.102;8.084;2023-04-03T11:42:25;3.67;;;1.08;;
20531;SDS011;10424;52.102;8.084;2023-04-03T11:47:44;2.72;;;1.10;;
20531;SDS011;10424;52.102;8.084;2023-04-03T11:50:24;2.83;;;1.27;;
20531;SDS011;10424;52.102;8.084;2023-04-03T11:52:58;2.85;;;1.25;;
20531;SDS011;10424;52.102;8.084;2023-04-03T11:55:45;3.35;;;1.20;;
20531;SDS011;10424;52.102;8.084;2023-04-03T11:58:14;2.15;;;1.08;;
20531;SDS011;10424;52.102;8.084;2023-04-03T12:00:48;2.45;;;1.13;;
20531;SDS011;10424;52.102;8.084;2023-04-03T12:09:00;3.58;;;1.30;;
20531;SDS011;10424;52.102;8.084;2023-04-03T12:11:28;3.28;;;1.20;;
20531;SDS011;10424;52.102;8.084;2023-04-03T12:14:03;5.47;;;1.05;;
20531;SDS011;10424;52.102;8.084;2023-04-03T12:16:32;3.20;;;1.13;;
20531;SDS011;10424;52.102;8.084;2023-04-03T12:19:01;3.80;;;1.27;;
20531;SDS011;10424;52.102;8.084;2023-04-03T12:24:25;3.50;;;1.20;;
20531;SDS011;10424;52.102;8.084;2023-04-03T12:27:01;3.05;;;1.30;;
20531;SDS011;10424;52.102;8.084;2023-04-03T12:29:33;2.97;;;1.40;;
20531;SDS011;10424;52.102;8.084;2023-04-03T12:32:05;4.53;;;1.27;;
20531;SDS011;10424;52.102;8.084;2023-04-03T12:34:43;3.65;;;1.38;;
20531;SDS011;10424;52.102;8.084;2023-04-03T12:37:19;6.35;;;1.50;;
20531;SDS011;10424;52.102;8.084;2023-04-03T12:39:54;3.35;;;1.50;;
20531;SDS011;10424;52.102;8.084;2023-04-03T12:42:30;3.65;;;1.45;;
20531;SDS011;10424;52.102;8.084;2023-04-03T12:45:00;6.28;;;1.42;;
20531;SDS011;10424;52.102;8.084;2023-04-03T12:47:31;3.38;;;1.30;;
20531;SDS011;10424;52.102;8.084;2023-04-03T12:50:01;5.03;;;1.40;;
20531;SDS011;10424;52.102;8.084;2023-04-03T12:52:33;3.58;;;1.10;;
20531;SDS011;10424;52.102;8.084;2023-04-03T12:55:03;3.33;;;1.30;;
20531;SDS011;10424;52.102;8.084;2023-04-03T12:57:35;5.97;;;1.70;;
20531;SDS011;10424;52.102;8.084;2023-04-03T13:02:44;4.22;;;1.52;;
20531;SDS011;10424;52.102;8.084;2023-04-03T13:05:13;4.10;;;1.30;;
20531;SDS011;10424;52.102;8.084;2023-04-03T13:07:42;11.05;;;3.05;;
20531;SDS011;10424;52.102;8.084;2023-04-03T13:10:15;5.60;;;1.60;;
20531;SDS011;10424;52.102;8.084;2023-04-03T13:12:47;2.67;;;1.15;;
20531;SDS011;10424;52.102;8.084;2023-04-03T13:15:15;4.60;;;1.17;;
20531;SDS011;10424;52.102;8.084;2023-04-03T13:17:44;4.70;;;1.27;;
20531;SDS011;10424;52.102;8.084;2023-04-03T13:20:14;3.70;;;1.33;;
20531;SDS011;10424;52.102;8.084;2023-04-03T13:22:45;5.40;;;1.35;;
20531;SDS011;10424;52.102;8.084;2023-04-03T13:25:16;3.30;;;1.38;;
20531;SDS011;10424;52.102;8.084;2023-04-03T13:27:44;3.80;;;1.27;;
20531;SDS011;10424;52.102;8.084;2023-04-03T13:30:20;4.65;;;1.40;;
20531;SDS011;10424;52.102;8.084;2023-04-03T13:32:48;2.25;;;1.17;;
20531;SDS011;10424;52.102;8.084;2023-04-03T13:35:26;5.18;;;1.40;;
20531;SDS011;10424;52.102;8.084;2023-04-03T13:37:55;4.03;;;1.20;;
20531;SDS011;10424;52.102;8.084;2023-04-03T13:40:24;5.68;;;1.50;;
20531;SDS011;10424;52.102;8.084;2023-04-03T13:42:58;4.43;;;1.50;;
20531;SDS011;10424;52.102;8.084;2023-04-03T13:45:26;4.28;;;1.67;;
20531;SDS011;10424;52.102;8.084;2023-04-03T13:48:06;3.63;;;1.50;;
20531;SDS011;10424;52.102;8.084;2023-04-03T13:50:40;3.97;;;1.30;;
20531;SDS011;10424;52.102;8.084;2023-04-03T13:53:16;3.92;;;1.30;;
20531;SDS011;10424;52.102;8.084;2023-04-03T13:55:55;3.13;;;1.17;;
20531;SDS011;10424;52.102;8.084;2023-04-03T13:58:23;2.78;;;1.30;;
20531;SDS011;10424;52.102;8.084;2023-04-03T14:00:51;3.28;;;1.40;;
20531;SDS011;10424;52.102;8.084;2023-04-03T14:03:21;4.28;;;1.10;;
20531;SDS011;10424;52.102;8.084;2023-04-03T14:05:48;2.85;;;1.27;;
20531;SDS011;10424;52.102;8.084;2023-04-03T14:08:16;4.90;;;1.30;;
20531;SDS011;10424;52.102;8.084;2023-04-03T14:10:43;4.03;;;1.20;;
20531;SDS011;10424;52.102;8.084;2023-04-03T14:13:14;2.72;;;1.10;;
20531;SDS011;10424;52.102;8.084;2023-04-03T14:15:42;2.55;;;1.20;;
20531;SDS011;10424;52.102;8.084;2023-04-03T14:18:10;3.05;;;1.20;;
20531;SDS011;10424;52.102;8.084;2023-04-03T14:20:38;2.90;;;1.17;;
20531;SDS011;10424;52.102;8.084;2023-04-03T14:23:05;3.63;;;1.20;;
20531;SDS011;10424;52.102;8.084;2023-04-03T14:25:33;4.40;;;1.50;;
20531;SDS011;10424;52.102;8.084;2023-04-03T14:28:06;2.55;;;1.17;;
20531;SDS011;10424;52.102;8.084;2023-04-03T14:30:40;1.67;;;1.15;;
20531;SDS011;10424;52.102;8.084;2023-04-03T14:33:09;2.55;;;1.17;;
20531;SDS011;10424;52.102;8.084;2023-04-03T14:35:37;2.92;;;1.23;;
20531;SDS011;10424;52.102;8.084;2023-04-03T14:38:05;2.75;;;1.30;;
20531;SDS011;10424;52.102;8.084;2023-04-03T14:40:32;2.05;;;1.23;;
20531;SDS011;10424;52.102;8.084;2023-04-03T14:42:59;2.92;;;1.30;;
20531;SDS011;10424;52.102;8.084;2023-04-03T14:45:27;3.38;;;1.30;;
20531;SDS011;10424;52.102;8.084;2023-04-03T14:47:55;1.92;;;1.20;;
20531;SDS011;10424;52.102;8.084;2023-04-03T14:50:24;3.85;;;1.10;;
20531;SDS011;10424;52.102;8.084;2023-04-03T14:52:52;2.42;;;0.95;;
20531;SDS011;10424;52.102;8.084;2023-04-03T14:55:20;3.38;;;1.25;;
20531;SDS011;10424;52.102;8.084;2023-04-03T14:57:48;3.60;;;1.25;;
20531;SDS011;10424;52.102;8.084;2023-04-03T15:00:16;3.58;;;1.20;;
20531;SDS011;10424;52.102;8.084;2023-04-03T15:02:43;2.78;;;1.13;;
20531;SDS011;10424;52.102;8.084;2023-04-03T15:05:14;1.88;;;1.02;;
20531;SDS011;10424;52.102;8.084;2023-04-03T15:07:42;3.47;;;1.30;;
20531;SDS011;10424;52.102;8.084;2023-04-03T15:10:14;3.95;;;1.30;;
20531;SDS011;10424;52.102;8.084;2023-04-03T15:12:42;2.13;;;1.10;;
20531;SDS011;10424;52.102;8.084;2023-04-03T15:15:10;2.55;;;1.00;;
20531;SDS011;10424;52.102;8.084;2023-04-03T15:17:37;2.45;;;1.15;;